Terminal Aerodrome Forecast
Issued by NWS Topeka, KS

Home | Current Version | Previous Version | Text Only | Print | Product List | Glossary On
Versions: 1 2 3 4 5 6 7 8 9 10 11 12 13 14 15 16 17 18 19 20 21 22 23 24 25 26 27
542
FTUS43 KTOP 191125
TAFTOP
TAF
KTOP 191125Z 1912/2012 11004KT P6SM SKC
     FM191400 15011KT P6SM FEW150
     FM191900 16014G22KT P6SM FEW060 SCT150=

USA.gov is the U.S. government's official web portal to all federal, state and local government web resources and services.